Terminal Aerodrome Forecast
Issued by NWS Wakefield, VA

Home | Current Version | Previous Version | Text Only | Print | Product List | Glossary On
Versions: 1 2 3 4 5 6 7 8 9 10 11 12
000
FTUS41 KAKQ 232300
TAFORF
TAF
KORF 232321Z 2400/2424 13007KT P6SM -RA FEW030 BKN080
      TEMPO 2400/2402 3SM -RA BR OVC012
     FM240200 13010G15KT 5SM -RA BR SCT012 OVC025
     FM240500 18016G25KT 2SM -RA BR SCT002 OVC007
     FM240800 20013G20KT P6SM SCT006 BKN011
     FM241700 22013G20KT P6SM SCT012 BKN035=

USA.gov is the U.S. government's official web portal to all federal, state and local government web resources and services.